This is the latest recevied weather packets stored in our database for station/object OK1FCB-1. If no packets are shown the sender has not sent any weather packets the latest 10 day(s).
| Time | Temp. | Humidity | Pressure | Rain* | Wind** | Luminosity | Snow |
|---|---|---|---|---|---|---|---|
| 1777882228 | 23.89° C | 33% | 1018.3 hPa | - | - | - | - |
| 1777881337 | 23.33° C | 35% | 1018.2 hPa | - | - | - | - |
| 1777879535 | 22.78° C | 35% | 1018 hPa | - | - | - | - |
| 1777878637 | 22.78° C | 35% | 1018.1 hPa | - | - | - | - |
| 1777877739 | 22.78° C | 36% | 1017.9 hPa | - | - | - | - |
| 1777874145 | 21.11° C | 38% | 1018.4 hPa | - | - | - | - |
| 1777869647 | 12.78° C | 55% | 1018.1 hPa | - | - | - | - |
| 1777868747 | 10° C | 57% | 1018.1 hPa | - | - | - | - |
| 1777867854 | 8.33° C | 57% | 1018 hPa | - | - | - | - |
| 1777866955 | 8.33° C | 58% | 1018.1 hPa | - | - | - | - |
| 1777866950 | 8.33° C | 58% | 1018.1 hPa | - | - | - | - |
| 1777865159 | 7.78° C | 57% | 1018.1 hPa | - | - | - | - |
| 1777865153 | 7.78° C | 57% | 1018.1 hPa | - | - | - | - |
| 1777863364 | 8.89° C | 55% | 1017.9 hPa | - | - | - | - |
| 1777862467 | 8.89° C | 55% | 1017.7 hPa | - | - | - | - |
| 1777862461 | 8.89° C | 55% | 1017.7 hPa | - | - | - | - |
| 1777860666 | 8.89° C | 55% | 1017.6 hPa | - | - | - | - |
| 1777859774 | 8.89° C | 55% | 1017.7 hPa | - | - | - | - |
| 1777859768 | 8.89° C | 55% | 1017.7 hPa | - | - | - | - |
| 1777858870 | 8.89° C | 55% | 1017.8 hPa | - | - | - | - |
| 1777857979 | 9.44° C | 54% | 1017.8 hPa | - | - | - | - |
| 1777857973 | 9.44° C | 54% | 1017.8 hPa | - | - | - | - |
| 1777854388 | 10° C | 53% | 1017.6 hPa | - | - | - | - |
| 1777854382 | 10° C | 53% | 1017.6 hPa | - | - | - | - |
| 1777850797 | 11.67° C | 50% | 1017.8 hPa | - | - | - | - |
* Rain since midnight (hover to see other rain measurements)
** Current wind speed in m/s (hover to see current wind gust speed)